Cabinet, Idaho
Current Conditions -  °F | °C
As of 5:35 PM on Thursday 18 Dec 2014 (Local Time) from KSZT Reporting Station
Haze Haze  
Wind Chill: 34°   Ceiling: 1500
Heat Index: 34°   Visibility: 4mi
Dew Point: 34°   Wind: 0mph
Humidity: 100%   Direction: NA
Pressure: 29.99"   Gusts: NA
Location:  48.029°N, 116.307°W
Report Text: KSZT 190135Z AUTO 00000KT 4SM BR OVC015 01/01 A2999 RMK AO2
Loading
Personal Weather Stations






























Interactive Weather Map New forecast layout! Learn more

10-Day Weather Forecast

Advertisements
Track Severe Weather on mobile